Stunt Ranch Reserve, Santa Monica Mtns, California Weather observations

Data are for 10 minute period ending at time listed.
 Day   Time   Solar   Ave.   Ave.  Ave.  Vector  Max.   Baro.   Total    
  of    of     Rad.   Air    Rel.  Wind   Wind   Wind  Press.  Precip.   
Year   Day            Temp.  Hum.  Speed  Dir.   Gust                    
2014   (PST)  Kw/m2    F      %     mph   deg.    mph    mb.     in.     
-------------------------------------------------------------------------
 354   20:10   0.00   53.0    88    2.4   256     5.0   973.6    0.00 
 354   20:20   0.00   53.3    90    2.3   303     5.0   973.9    0.00 
 354   20:30   0.00   53.0    89    3.2   123     4.8   973.9    0.00 
 354   20:40   0.00   52.9    90    2.8   245     4.3   973.9    0.00 
 354   20:50   0.00   52.6    90    1.2   104     2.2   973.9    0.00 
 354   21:00   0.00   52.6    90    1.6   142     3.4   973.6    0.00 
 354   21:10   0.00   52.9    89    0.9   172     1.9   973.6    0.00 
 354   21:20   0.00   53.0    88    2.0   113     3.6   973.6    0.00 
 354   21:30   0.00   53.1    88    2.0   114     3.6   973.3    0.00 
 354   21:40   0.00   53.3    87    1.6   154     3.6   973.6    0.00 
 354   21:50   0.00   53.4    88    1.3   270     3.7   973.6    0.00 
 354   22:00   0.00   53.1    89    2.8   275     6.5   973.9    0.00 
 354   22:10   0.00   52.6    91    2.9   265     6.4   973.9    0.00 
 354   22:20   0.00   52.4    91    2.4   233     5.0   973.9    0.00 
 354   22:30   0.00   52.4    90    1.1   146     3.7   973.9    0.00 
 354   22:40   0.00   51.9    90    3.2   283     6.0   973.9    0.00 
 354   22:50   0.00   51.4    92    1.6   139     3.4   974.3    0.00 
 354   23:00   0.00   50.8    93    2.9   139     5.1   973.9    0.00 
 354   23:10   0.00   51.6    92    2.2   200     3.9   974.3    0.00 
 354   23:20   0.00   52.6    88    1.4   236     3.2   974.3    0.00 
 354   23:30   0.00   51.0    89    1.6   147     3.9   974.3    0.00 
 354   23:40   0.00   51.8    87    3.7   129     5.9   974.3    0.00 
 354   23:50   0.00   55.5    74    2.5    91     5.0   973.9    0.00 
 355    0:00   0.00   56.2    72    2.1   100     5.4   973.9    0.00 
 355    0:10   0.00   56.9    69    3.4   119     7.8   973.9    0.00 
 355    0:20   0.00   56.7    69    3.7    86     8.3   973.9    0.00 
 355    0:30   0.00   56.3    71    4.3   121     7.7   973.9    0.00 
 355    0:40   0.00   56.3    70    5.6   109    13.3   973.6    0.00 
 355    0:50   0.00   56.8    68    8.2   104    14.9   973.6    0.00 
 355    1:00   0.00   56.9    68    4.2   117     9.3   973.6    0.00 
 355    1:10   0.00   57.0    67    3.0    74    10.1   973.6    0.00 
 355    1:20   0.00   57.4    66    4.0   115    14.1   973.9    0.00 
 355    1:30   0.00   57.5    66    3.8   145     8.9   973.9    0.00 
 355    1:40   0.00   57.9    65    3.0   139     6.6   973.6    0.00 
 355    1:50   0.00   57.3    66    2.4   115     6.4   973.9    0.00 
 355    2:00   0.00   56.6    68    3.3   127     8.3   973.9    0.00 
 355    2:10   0.00   57.2    66    4.4   120     7.9   973.6    0.00 
 355    2:20   0.00   57.8    64    4.5   125     8.7   973.9    0.00 
 355    2:30   0.00   58.1    63    2.0   121     4.6   973.9    0.00 
 355    2:40   0.00   57.5    65    1.7    70     4.9   973.9    0.00 
 355    2:50   0.00   57.1    66    2.7    94     5.8   973.6    0.00 
 355    3:00   0.00   56.6    67    3.1   132     5.7   973.6    0.00 
 355    3:10   0.00   56.2    68    1.6   121     4.2   973.6    0.00 
 355    3:20   0.00   57.3    65    1.5   138     3.7   973.3    0.00 
 355    3:30   0.00   56.9    66    1.9   146     3.9   973.3    0.00 
 355    3:40   0.00   56.8    65    1.4   272     3.1   972.9    0.00 
 355    3:50   0.00   56.7    65    1.0    66     4.5   972.9    0.00 
 355    4:00   0.00   56.5    65    2.9   313     6.4   972.9    0.00 
 355    4:10   0.00   55.2    70    2.2   286     4.8   972.9    0.00 
 355    4:20   0.00   53.1    76    2.8   334     8.8   972.9    0.00 
 355    4:30   0.00   54.1    72    1.4   259     4.8   972.9    0.00 
 355    4:40   0.00   55.0    69    2.8   331     7.2   972.9    0.00 
 355    4:50   0.00   55.1    68    1.2    97     5.3   972.9    0.00 
 355    5:00   0.00   54.3    72    1.7   260     4.5   972.9    0.00 
 355    5:10   0.00   53.8    73    1.1   251     3.7   973.3    0.00 
 355    5:20   0.00   54.4    70    2.0   238     4.5   973.3    0.00 
 355    5:30   0.00   54.0    70    2.2   152     5.0   973.3    0.00 
 355    5:40   0.00   54.0    70    2.7   163     4.4   973.3    0.00 
 355    5:50   0.00   54.9    67    2.2   163     4.2   973.6    0.00 
 355    6:00   0.00   54.4    67    2.9   131     4.7   973.6    0.00 
 355    6:10   0.00   55.0    65    3.5   125     5.7   973.6    0.00 
 355    6:20   0.00   55.8    63    1.7   105     4.7   973.6    0.00 
 355    6:30   0.00   55.5    63    3.2   107     6.6   973.3    0.00 
 355    6:40   0.00   56.2    60    2.2   159     5.0   973.6    0.00 
 355    6:50   0.00   57.7    56    3.1   166     6.0   973.6    0.00 
 355    7:00   0.01   57.7    57    2.2   139    10.2   973.6    0.00 
 355    7:10   0.01   58.3    56    1.2   168     3.8   973.6    0.00 
 355    7:20   0.02   59.2    54    2.3   322     7.4   973.6    0.00 
 355    7:30   0.03   58.3    59    3.7   266     9.1   973.3    0.00 
 355    7:40   0.04   57.6    58    2.7   228     8.6   973.6    0.00 
 355    7:50   0.05   60.5    53    3.7   344    10.8   973.6    0.00 
 355    8:00   0.06   58.4    60    1.6   149     4.3   973.6    0.00 
 355    8:10   0.08   54.7    71    1.8   270     4.1   973.9    0.00 
 355    8:20   0.09   52.5    77    1.9   129     5.3   973.9    0.00 
 355    8:30   0.12   52.9    77    4.1   266     9.7   973.9    0.00 
 355    8:40   0.14   54.4    75    3.0   280     6.1   974.3    0.00 
 355    8:50   0.17   54.5    76    2.8    67     5.6   974.3    0.00 
 355    9:00   0.21   54.9    73    4.3   112     6.4   974.3    0.00 
 355    9:10   0.24   57.6    68    2.2   119     5.2   974.3    0.00 
 355    9:20   0.28   59.9    62    1.6    83     3.1   974.6    0.00 
 355    9:30   0.31   61.5    60    1.6    85     2.9   974.3    0.00 
 355    9:40   0.33   63.4    54    0.9   271     2.9   974.6    0.00 
 355    9:50   0.31   65.3    49    1.0   307     2.0   974.3    0.00 
 355   10:00   0.33   64.8    50    1.0   322     3.1   974.3    0.00 
 355   10:10   0.38   65.5    53    3.7   277     5.6   974.3    0.00 
 355   10:20   0.33   65.2    54    3.3   274     5.6   974.3    0.00 
 355   10:30   0.38   66.1    51    1.8   271     2.9   974.3    0.00 
 355   10:40   0.35   65.9    51    1.4   244     5.0   973.9    0.00 
 355   10:50   0.42   66.2    54    3.1   271     6.6   973.9    0.00 
 355   11:00   0.39   67.1    52    3.3   277     7.8   973.6    0.00 
 355   11:10   0.35   66.7    54    3.2   264     9.0   973.6    0.00 
 355   11:20   0.43   67.3    53    3.4   281     7.8   973.3    0.00 
 355   11:30   0.46   68.0    52    3.1   282     7.7   973.3    0.00 
 355   11:40   0.52   68.9    52    5.0   272     7.7   972.9    0.00 
 355   11:50   0.45   69.3    52    4.4   271     8.0   972.9    0.00 
 355   12:00   0.43   69.3    51    2.5   275     4.6   972.6    0.00 
 355   12:10   0.42   69.9    50    1.9   272     3.7   972.2    0.00 
 355   12:20   0.56   70.5    48    1.6   273     3.0   972.2    0.00 
 355   12:30   0.54   71.7    46    1.7   278     4.1   971.9    0.00 
 355   12:40   0.48   71.8    47    2.5   259     6.1   971.9    0.00 
 355   12:50   0.45   71.9    46    4.4   322     9.2   971.6    0.00 
 355   13:00   0.37   72.4    47    2.9   302     6.6   971.2    0.00 
 355   13:10   0.31   72.3    48    3.6   273     6.4   971.2    0.00 
 355   13:20   0.34   71.6    49    3.3   282     6.9   970.9    0.00 
 355   13:30   0.34   71.6    49    3.7   279     7.2   970.9    0.00 
 355   13:40   0.27   71.4    49    4.4   269     7.7   970.9    0.00 
 355   13:50   0.25   70.4    51    3.1   276     7.5   970.9    0.00 
 355   14:00   0.24   70.3    50    2.3   272     6.9   970.5    0.00 
 355   14:10   0.22   70.2    51    1.7   273     4.4   970.9    0.00 
 355   14:20   0.20   70.3    51    1.0   281     3.9   970.9    0.00 
 355   14:30   0.18   69.9    51    1.2   304     4.6   970.9    0.00 
 355   14:40   0.17   69.5    52    0.3   298     2.3   970.5    0.00 
 355   14:50   0.16   69.1    54    0.7   288     3.4   970.5    0.00 
 355   15:00   0.14   68.6    54    0.9   295     4.1   970.9    0.00 
 355   15:10   0.10   68.3    56    0.5   301     3.9   970.9    0.00 
 355   15:20   0.09   67.3    57    0.5   315     3.3   970.9    0.00 
 355   15:30   0.08   66.3    59    0.4   277     2.8   970.9    0.00 
 355   15:40   0.06   65.1    63    0.6   255     2.5   971.2    0.00 
 355   15:50   0.05   64.2    63    1.5   224     2.6   971.2    0.00 
 355   16:00   0.04   63.9    63    1.5   220     3.4   971.2    0.00 
 355   16:10   0.04   63.1    65    3.2   130     6.3   971.2    0.00 
 355   16:20   0.03   63.8    59    1.3   356     5.3   971.2    0.00 
 355   16:30   0.02   64.0    59    2.1   127     4.5   971.6    0.00 
 355   16:40   0.01   64.1    57    2.2   134     7.7   971.2    0.00 
 355   16:50   0.01   63.5    58    1.5    57     4.5   971.2    0.00 
 355   17:00   0.00   63.9    56    2.1   357     9.4   971.2    0.00 
 355   17:10   0.00   63.4    57    2.6   291    10.4   971.2    0.00 
 355   17:20   0.00   62.2    60    2.4   245     4.7   971.2    0.00 
 355   17:30   0.00   61.7    60    1.7   269     3.7   970.9    0.00 
 355   17:40   0.00   61.6    61    1.2   188     3.5   971.2    0.00 
 355   17:50   0.00   61.1    61    1.2   234     3.3   971.2    0.00 
 355   18:00   0.00   61.0    62    1.1   245     2.7   971.2    0.00 
 355   18:10   0.00   60.8    61    3.0   158     5.8   971.2    0.00 
 355   18:20   0.00   62.1    56    3.3   108     8.0   971.2    0.00 
 355   18:30   0.00   63.5    53    4.4    21    11.2   971.6    0.00 
 355   18:40   0.00   64.4    51    6.8   108    18.0   971.6    0.00 
 355   18:50   0.00   65.3    49    5.7    88    15.0   971.9    0.00 
 355   19:00   0.00   65.3    49    8.3    80    23.7   971.9    0.00 
 355   19:10   0.00   65.0    50    6.9   345    15.3   971.6    0.00 
 355   19:20   0.00   64.8    49    4.6   358    10.2   971.6    0.00 
 355   19:30   0.00   65.0    47    3.4    64     8.3   971.6    0.00 
 355   19:40   0.00   64.6    49    4.5   340    12.7   971.6    0.00 
 355   19:50   0.00   64.1    50    4.3    23    12.0   971.6    0.00 
 355   20:00   0.00   64.1    50    7.3   352    16.7   971.6    0.00 

Return to Stunt Ranch Reserve graphs page.


Western Regional Climate Center,wrcc@dri.edu